createdAt,value
2022-08-31T00:00:11.159Z,19.20
2022-08-31T00:02:57.575Z,19.40
2022-08-31T00:05:24.643Z,19.30
2022-08-31T00:07:52.596Z,19.50
2022-08-31T00:10:31.565Z,19.30
2022-08-31T00:12:59.657Z,19.40
2022-08-31T00:15:30.423Z,19.20
2022-08-31T00:17:57.489Z,19.30
2022-08-31T00:20:33.493Z,19.30
2022-08-31T00:23:01.893Z,19.20
2022-08-31T00:25:29.227Z,19.40
2022-08-31T00:27:56.265Z,19.30
2022-08-31T00:30:23.543Z,19.30
2022-08-31T00:32:52.260Z,19.30
2022-08-31T00:35:19.280Z,19.40
2022-08-31T00:37:46.402Z,19.50
2022-08-31T00:40:13.907Z,19.50
2022-08-31T00:42:40.936Z,19.60
2022-08-31T00:45:09.406Z,19.60
2022-08-31T00:47:36.593Z,19.50
2022-08-31T00:50:06.722Z,19.40
2022-08-31T00:52:37.488Z,19.40
2022-08-31T00:55:07.715Z,19.30
2022-08-31T00:57:36.158Z,19.20
2022-08-31T01:00:05.474Z,19.20
2022-08-31T01:02:32.734Z,19.00
2022-08-31T01:04:59.850Z,18.60
2022-08-31T01:07:28.428Z,18.70
2022-08-31T01:09:56.297Z,18.90
2022-08-31T01:12:23.791Z,18.90
2022-08-31T01:14:51.082Z,18.90
2022-08-31T01:17:18.722Z,18.60
2022-08-31T01:19:50.139Z,18.70
2022-08-31T01:22:22.835Z,18.90
2022-08-31T01:24:52.028Z,18.90
2022-08-31T01:27:23.039Z,18.80
2022-08-31T01:29:50.485Z,18.70
2022-08-31T01:32:17.658Z,18.60
2022-08-31T01:34:44.897Z,18.50
2022-08-31T01:37:12.657Z,18.50
2022-08-31T01:39:40.435Z,18.20
2022-08-31T01:42:08.786Z,18.60
2022-08-31T01:44:35.702Z,18.40
2022-08-31T01:47:02.909Z,18.60
2022-08-31T01:49:29.855Z,18.60
2022-08-31T01:51:57.450Z,18.40
2022-08-31T01:54:26.661Z,18.40
2022-08-31T01:56:54.594Z,18.60
2022-08-31T01:59:40.263Z,18.60
2022-08-31T02:02:18.253Z,18.60
2022-08-31T02:04:45.310Z,18.40
2022-08-31T02:07:12.270Z,18.40
2022-08-31T02:09:39.182Z,18.40
2022-08-31T02:12:06.236Z,18.40
2022-08-31T02:14:33.404Z,18.30
2022-08-31T02:17:01.676Z,18.50
2022-08-31T02:19:29.499Z,18.70
2022-08-31T02:21:56.723Z,18.90
2022-08-31T02:24:23.739Z,18.90
2022-08-31T02:26:53.798Z,18.50
2022-08-31T02:29:21.342Z,18.50
2022-08-31T02:31:48.572Z,18.40
2022-08-31T02:34:17.358Z,18.20
2022-08-31T02:36:45.380Z,18.20
2022-08-31T02:39:13.695Z,18.30
2022-08-31T02:41:41.942Z,18.20
2022-08-31T02:44:09.136Z,18.20
2022-08-31T02:46:36.235Z,18.00
2022-08-31T02:49:32.965Z,18.00
2022-08-31T02:52:00.730Z,18.10
2022-08-31T02:54:27.664Z,18.20
2022-08-31T02:56:54.596Z,18.40
2022-08-31T02:59:21.534Z,18.40
2022-08-31T03:01:48.842Z,18.40
2022-08-31T03:04:17.422Z,18.10
2022-08-31T03:06:47.920Z,18.10
2022-08-31T03:09:16.105Z,18.10
2022-08-31T03:11:43.529Z,17.80
2022-08-31T03:14:10.755Z,17.50
2022-08-31T03:16:38.844Z,17.50
2022-08-31T03:19:06.213Z,17.30
2022-08-31T03:21:33.354Z,17.10
2022-08-31T03:24:05.323Z,17.00
2022-08-31T03:26:32.874Z,16.90
2022-08-31T03:28:59.958Z,17.00
2022-08-31T03:31:45.775Z,17.30
2022-08-31T03:34:12.915Z,17.00
2022-08-31T03:36:43.598Z,17.00
2022-08-31T03:39:12.087Z,17.20
2022-08-31T03:41:40.024Z,17.30
2022-08-31T03:44:07.518Z,17.30
2022-08-31T03:46:35.715Z,17.50
2022-08-31T03:49:03.514Z,17.50
2022-08-31T03:51:32.924Z,17.30
2022-08-31T03:54:00.153Z,17.40
2022-08-31T03:56:28.772Z,17.40
2022-08-31T03:58:56.531Z,17.20
2022-08-31T04:01:43.297Z,17.00
2022-08-31T04:04:29.236Z,17.00
2022-08-31T04:08:34.114Z,17.10
2022-08-31T04:11:40.530Z,17.00
2022-08-31T04:14:26.635Z,17.10
2022-08-31T04:17:12.817Z,17.20
2022-08-31T04:19:47.020Z,17.30
2022-08-31T04:22:34.475Z,17.40
2022-08-31T04:25:21.684Z,17.60
2022-08-31T04:27:50.378Z,17.60
2022-08-31T04:30:18.379Z,17.50
2022-08-31T04:32:45.377Z,17.50
2022-08-31T04:35:12.567Z,17.40
2022-08-31T04:37:46.387Z,17.50
2022-08-31T04:40:19.810Z,17.30
2022-08-31T04:42:48.832Z,17.30
2022-08-31T04:45:18.523Z,17.20
2022-08-31T04:47:45.570Z,17.20
2022-08-31T04:50:13.772Z,17.20
2022-08-31T04:53:03.660Z,17.20
2022-08-31T04:55:31.960Z,17.30
2022-08-31T04:58:00.591Z,17.50
2022-08-31T05:00:28.306Z,17.30
2022-08-31T05:03:27.631Z,17.30
2022-08-31T05:05:56.874Z,17.30
2022-08-31T05:08:24.100Z,17.10
2022-08-31T05:10:51.438Z,16.90
2022-08-31T05:13:19.944Z,17.20
2022-08-31T05:15:47.020Z,17.20
2022-08-31T05:18:20.091Z,17.30
2022-08-31T05:20:54.443Z,17.40
2022-08-31T05:23:21.521Z,17.30
2022-08-31T05:25:48.538Z,17.50
2022-08-31T05:28:16.741Z,17.30
2022-08-31T05:30:45.282Z,17.50
2022-08-31T05:33:26.569Z,18.10
2022-08-31T05:35:53.623Z,18.70
2022-08-31T05:38:20.719Z,19.80
2022-08-31T05:40:51.451Z,21.00
2022-08-31T05:43:18.723Z,21.20
2022-08-31T05:45:47.798Z,21.70
2022-08-31T05:48:14.978Z,22.00
2022-08-31T05:50:42.607Z,22.50
2022-08-31T05:53:09.887Z,22.50
2022-08-31T05:55:36.943Z,22.80
2022-08-31T05:58:04.563Z,22.80
2022-08-31T06:00:32.212Z,21.60
2022-08-31T06:03:20.540Z,21.50
2022-08-31T06:05:50.538Z,21.50
2022-08-31T06:08:17.903Z,20.90
2022-08-31T06:10:48.941Z,21.30
2022-08-31T06:13:17.100Z,22.20
2022-08-31T06:15:45.069Z,23.00
2022-08-31T06:18:12.133Z,24.00
2022-08-31T06:20:40.966Z,25.00
2022-08-31T06:23:08.929Z,26.00
2022-08-31T06:25:46.377Z,25.10
2022-08-31T06:28:15.000Z,25.20
2022-08-31T06:30:54.966Z,24.80
2022-08-31T06:33:23.022Z,25.50
2022-08-31T06:36:09.063Z,24.20
2022-08-31T06:39:00.626Z,23.90
2022-08-31T06:41:38.541Z,24.40
2022-08-31T06:44:24.152Z,24.10
2022-08-31T06:47:07.640Z,25.70
2022-08-31T06:49:38.563Z,26.30
2022-08-31T06:52:07.948Z,26.10
2022-08-31T06:54:37.252Z,26.40
2022-08-31T06:57:24.492Z,25.30
2022-08-31T07:00:12.111Z,25.40
2022-08-31T07:02:52.979Z,25.90
2022-08-31T07:05:25.011Z,25.30
2022-08-31T07:07:55.013Z,25.90
2022-08-31T07:10:22.297Z,25.20
2022-08-31T07:12:49.236Z,25.20
2022-08-31T07:15:16.368Z,25.20
2022-08-31T07:17:43.536Z,25.70
2022-08-31T07:20:11.555Z,26.20
2022-08-31T07:22:38.626Z,26.10
2022-08-31T07:25:30.949Z,25.60
2022-08-31T07:27:59.431Z,24.80
2022-08-31T07:30:29.043Z,24.70
2022-08-31T07:33:06.095Z,24.80
2022-08-31T07:35:35.296Z,24.60
2022-08-31T07:38:35.593Z,24.80
2022-08-31T07:41:28.715Z,24.50
2022-08-31T07:43:57.186Z,25.00
2022-08-31T07:46:30.125Z,25.20
2022-08-31T07:49:12.825Z,25.10
2022-08-31T07:51:55.927Z,24.90
2022-08-31T07:54:36.724Z,24.60
2022-08-31T07:57:47.227Z,24.60
2022-08-31T08:00:18.125Z,23.60
2022-08-31T08:02:50.916Z,22.80
2022-08-31T08:05:26.704Z,22.50
2022-08-31T08:08:22.831Z,22.40
2022-08-31T08:11:08.640Z,22.30
2022-08-31T08:14:09.481Z,23.10
2022-08-31T08:16:49.174Z,22.90
2022-08-31T08:19:31.215Z,22.80
2022-08-31T08:21:58.920Z,22.20
2022-08-31T08:24:31.594Z,22.40
2022-08-31T08:27:05.521Z,22.70
2022-08-31T08:29:53.011Z,22.80
2022-08-31T08:32:25.784Z,23.00
2022-08-31T08:34:52.851Z,23.30
2022-08-31T08:37:35.735Z,23.40
2022-08-31T08:40:09.521Z,23.50
2022-08-31T08:42:38.205Z,23.60
2022-08-31T08:45:07.314Z,24.00
2022-08-31T08:47:38.450Z,23.90
2022-08-31T08:50:07.752Z,24.10
2022-08-31T08:52:41.295Z,24.50
2022-08-31T08:55:10.228Z,24.70
2022-08-31T08:57:39.574Z,24.80
2022-08-31T09:00:11.419Z,24.70
2022-08-31T09:02:43.428Z,24.60
2022-08-31T09:05:33.047Z,25.00
2022-08-31T09:08:19.478Z,24.90
2022-08-31T09:10:57.210Z,24.90
2022-08-31T09:13:31.799Z,25.40
2022-08-31T09:16:10.082Z,25.60
2022-08-31T09:18:43.865Z,25.50
2022-08-31T09:21:21.027Z,25.30
2022-08-31T09:23:57.949Z,25.80
2022-08-31T09:26:31.453Z,25.80
2022-08-31T09:29:13.905Z,25.40
2022-08-31T09:31:43.583Z,25.10
2022-08-31T09:34:25.030Z,24.80
2022-08-31T09:37:04.548Z,24.90
2022-08-31T09:39:32.975Z,25.40
2022-08-31T09:42:14.526Z,25.60
2022-08-31T09:44:42.453Z,26.40
2022-08-31T09:47:40.428Z,27.70
2022-08-31T09:50:09.730Z,28.50
2022-08-31T09:53:07.319Z,28.20
2022-08-31T09:55:34.410Z,28.10
2022-08-31T09:58:04.384Z,27.30
2022-08-31T10:00:39.055Z,27.10
2022-08-31T10:03:09.705Z,26.90
2022-08-31T10:05:41.776Z,26.60
2022-08-31T10:08:18.860Z,27.00
2022-08-31T10:13:12.768Z,27.10
2022-08-31T10:15:42.152Z,27.40
2022-08-31T10:18:13.758Z,28.40
2022-08-31T10:20:46.430Z,28.70
2022-08-31T10:23:19.124Z,29.00
2022-08-31T10:25:52.898Z,28.20
2022-08-31T10:28:31.615Z,28.00
2022-08-31T10:31:01.706Z,28.60
2022-08-31T10:33:50.478Z,29.10
2022-08-31T10:36:18.026Z,28.60
2022-08-31T10:38:47.501Z,28.00
2022-08-31T10:41:18.654Z,27.80
2022-08-31T10:43:50.240Z,27.40
2022-08-31T10:46:17.522Z,27.10
2022-08-31T10:48:51.099Z,26.80
2022-08-31T10:51:22.352Z,26.70
2022-08-31T10:53:54.934Z,27.30
2022-08-31T10:56:25.469Z,27.70
2022-08-31T10:59:07.148Z,27.80
2022-08-31T11:01:39.088Z,28.40
2022-08-31T11:04:20.960Z,29.40
2022-08-31T11:06:51.550Z,29.40
2022-08-31T11:09:21.665Z,28.50
2022-08-31T11:11:58.135Z,28.50
2022-08-31T11:14:45.118Z,29.00
2022-08-31T11:17:28.842Z,28.20
2022-08-31T11:20:07.797Z,27.80
2022-08-31T11:22:56.791Z,28.10
2022-08-31T11:25:34.334Z,28.30
2022-08-31T11:28:07.224Z,28.80
2022-08-31T11:30:41.748Z,29.70
2022-08-31T11:33:16.318Z,29.70
2022-08-31T11:36:07.320Z,29.10
2022-08-31T11:38:42.394Z,29.20
2022-08-31T11:41:11.186Z,29.20
2022-08-31T11:43:52.052Z,29.50
2022-08-31T11:46:50.754Z,29.80
2022-08-31T11:49:38.915Z,30.30
2022-08-31T11:52:10.341Z,31.10
2022-08-31T11:54:58.713Z,31.00
2022-08-31T11:57:29.094Z,30.30
2022-08-31T11:59:56.123Z,29.80
2022-08-31T12:02:45.487Z,30.10
2022-08-31T12:05:35.370Z,29.50
2022-08-31T12:08:03.630Z,29.30
2022-08-31T12:10:36.526Z,29.20
2022-08-31T12:13:25.216Z,28.80
2022-08-31T12:15:58.724Z,29.00
2022-08-31T12:18:32.215Z,29.60
2022-08-31T12:21:26.024Z,29.30
2022-08-31T12:24:02.130Z,29.40
2022-08-31T12:26:50.118Z,29.20
2022-08-31T12:29:23.008Z,29.00
2022-08-31T12:32:11.431Z,28.80
2022-08-31T12:34:41.262Z,28.80
2022-08-31T12:37:29.711Z,29.30
2022-08-31T12:40:07.634Z,29.40
2022-08-31T12:42:38.401Z,28.20
2022-08-31T12:45:06.040Z,29.20
2022-08-31T12:47:37.341Z,30.20
2022-08-31T12:50:10.216Z,31.10
2022-08-31T12:52:51.067Z,31.10
2022-08-31T12:55:23.629Z,30.20
2022-08-31T12:57:56.132Z,29.60
2022-08-31T13:00:26.124Z,29.60
2022-08-31T13:02:54.366Z,29.30
2022-08-31T13:05:22.466Z,29.40
2022-08-31T13:07:50.980Z,28.90
2022-08-31T13:10:24.557Z,29.60
2022-08-31T13:12:53.105Z,30.20
2022-08-31T13:15:24.034Z,30.70
2022-08-31T13:17:53.559Z,30.20
2022-08-31T13:20:22.004Z,29.70
2022-08-31T13:22:57.262Z,28.60
2022-08-31T13:25:37.956Z,28.10
2022-08-31T13:28:07.294Z,27.60
2022-08-31T13:30:39.163Z,27.30
2022-08-31T13:33:23.360Z,27.20
2022-08-31T13:35:52.171Z,27.70
2022-08-31T13:38:29.120Z,28.50
2022-08-31T13:40:56.058Z,28.80
2022-08-31T13:43:27.410Z,28.40
2022-08-31T13:45:58.818Z,27.20
2022-08-31T13:48:28.835Z,27.50
2022-08-31T13:50:59.319Z,27.20
2022-08-31T13:53:37.913Z,27.30
2022-08-31T13:56:40.046Z,28.00
2022-08-31T13:59:17.157Z,27.90
2022-08-31T14:01:47.551Z,28.30
2022-08-31T14:04:38.973Z,28.00
2022-08-31T14:07:05.957Z,27.50
2022-08-31T14:09:34.366Z,26.80
2022-08-31T14:12:05.251Z,26.90
2022-08-31T14:14:40.421Z,27.30
2022-08-31T14:17:08.315Z,27.80
2022-08-31T14:19:39.480Z,27.60
2022-08-31T14:22:17.536Z,27.50
2022-08-31T14:24:46.604Z,27.70
2022-08-31T14:27:16.067Z,28.20
2022-08-31T14:29:46.438Z,27.90
2022-08-31T14:32:16.124Z,28.70
2022-08-31T14:34:48.934Z,28.60
2022-08-31T14:37:22.561Z,28.50
2022-08-31T14:40:07.539Z,27.60
2022-08-31T14:42:37.203Z,27.30
2022-08-31T14:45:06.812Z,26.80
2022-08-31T14:47:36.252Z,26.80
2022-08-31T14:50:07.427Z,26.40
2022-08-31T14:52:34.784Z,26.40
2022-08-31T14:55:09.101Z,26.50
2022-08-31T14:57:36.768Z,26.50
2022-08-31T15:00:08.690Z,26.90
2022-08-31T15:02:35.970Z,26.90
2022-08-31T15:05:04.768Z,26.90
2022-08-31T15:07:32.863Z,27.00
2022-08-31T15:09:59.806Z,26.90
2022-08-31T15:12:28.703Z,26.60
2022-08-31T15:14:58.931Z,26.70
2022-08-31T15:17:26.175Z,26.70
2022-08-31T15:19:55.209Z,26.90
2022-08-31T15:22:22.574Z,26.70
2022-08-31T15:24:50.027Z,26.50
2022-08-31T15:27:17.852Z,26.70
2022-08-31T15:29:49.538Z,26.40
2022-08-31T15:32:17.511Z,26.40
2022-08-31T15:34:53.531Z,26.40
2022-08-31T15:37:21.460Z,26.00
2022-08-31T15:39:50.634Z,26.10
2022-08-31T15:42:20.562Z,26.40
2022-08-31T15:44:56.951Z,26.50
2022-08-31T15:47:43.302Z,26.30
2022-08-31T15:50:10.688Z,26.30
2022-08-31T15:52:48.897Z,26.10
2022-08-31T15:55:21.705Z,25.90
2022-08-31T15:57:48.932Z,25.50
2022-08-31T16:00:20.184Z,25.80
2022-08-31T16:02:47.502Z,25.80
2022-08-31T16:05:15.019Z,26.10
2022-08-31T16:07:42.771Z,25.70
2022-08-31T16:10:19.351Z,25.50
2022-08-31T16:12:47.682Z,25.30
2022-08-31T16:15:15.507Z,25.30
2022-08-31T16:17:44.328Z,25.50
2022-08-31T16:20:12.492Z,25.60
2022-08-31T16:22:40.421Z,25.70
2022-08-31T16:25:11.528Z,25.30
2022-08-31T16:27:39.844Z,25.20
2022-08-31T16:30:07.770Z,25.30
2022-08-31T16:32:34.737Z,25.30
2022-08-31T16:35:05.639Z,25.30
2022-08-31T16:37:32.906Z,25.30
2022-08-31T16:40:00.064Z,25.00
2022-08-31T16:42:27.504Z,25.00
2022-08-31T16:44:59.833Z,25.10
2022-08-31T16:47:29.087Z,25.20
2022-08-31T16:49:56.278Z,25.20
2022-08-31T16:52:28.049Z,25.00
2022-08-31T16:54:56.942Z,24.90
2022-08-31T16:57:27.418Z,25.10
2022-08-31T16:59:54.895Z,25.20
2022-08-31T17:02:23.250Z,25.00
2022-08-31T17:04:52.900Z,24.70
2022-08-31T17:07:21.069Z,24.70
2022-08-31T17:09:49.380Z,24.60
2022-08-31T17:12:17.627Z,24.80
2022-08-31T17:14:46.815Z,24.90
2022-08-31T17:17:14.927Z,25.00
2022-08-31T17:19:43.504Z,25.00
2022-08-31T17:22:16.913Z,24.90
2022-08-31T17:24:46.790Z,24.80
2022-08-31T17:27:16.047Z,24.90
2022-08-31T17:29:48.377Z,24.50
2022-08-31T17:32:19.043Z,24.30
2022-08-31T17:34:49.522Z,24.10
2022-08-31T17:37:16.768Z,24.40
2022-08-31T17:39:44.763Z,24.60
2022-08-31T17:42:15.057Z,24.30
2022-08-31T17:44:48.148Z,24.30
2022-08-31T17:47:15.347Z,24.70
2022-08-31T17:49:46.592Z,24.90
2022-08-31T17:52:13.913Z,24.90
2022-08-31T17:54:43.531Z,24.70
2022-08-31T17:57:12.108Z,24.60
2022-08-31T17:59:40.531Z,24.60
2022-08-31T18:02:10.086Z,24.40
2022-08-31T18:04:37.631Z,24.20
2022-08-31T18:07:05.092Z,24.40
2022-08-31T18:09:33.300Z,24.20
2022-08-31T18:12:00.975Z,24.20
2022-08-31T18:14:29.112Z,24.10
2022-08-31T18:16:56.920Z,24.00
2022-08-31T18:19:28.178Z,24.10
2022-08-31T18:21:55.668Z,24.10
2022-08-31T18:24:23.148Z,24.00
2022-08-31T18:26:51.056Z,24.00
2022-08-31T18:29:24.331Z,23.90
2022-08-31T18:31:53.960Z,23.90
2022-08-31T18:34:23.360Z,23.90
2022-08-31T18:36:53.241Z,24.00
2022-08-31T18:39:49.883Z,23.90
2022-08-31T18:42:32.388Z,23.90
2022-08-31T18:45:18.417Z,24.10
2022-08-31T18:48:07.230Z,23.80
2022-08-31T18:50:36.470Z,23.60
2022-08-31T18:53:10.681Z,23.50
2022-08-31T18:55:38.588Z,23.40
2022-08-31T18:58:05.570Z,23.30
2022-08-31T19:00:33.160Z,23.50
2022-08-31T19:03:00.423Z,23.30
2022-08-31T19:05:28.616Z,23.20
2022-08-31T19:07:55.826Z,23.10
2022-08-31T19:10:25.484Z,23.20
2022-08-31T19:12:52.561Z,23.20
2022-08-31T19:15:19.780Z,23.10
2022-08-31T19:17:49.323Z,23.20
2022-08-31T19:20:16.684Z,23.30
2022-08-31T19:22:44.036Z,23.30
2022-08-31T19:25:12.081Z,23.30
2022-08-31T19:27:50.686Z,23.00
2022-08-31T19:30:18.351Z,22.80
2022-08-31T19:32:45.418Z,22.70
2022-08-31T19:35:12.385Z,22.60
2022-08-31T19:37:42.338Z,22.60
2022-08-31T19:40:17.889Z,22.30
2022-08-31T19:45:43.429Z,22.30
2022-08-31T19:48:12.263Z,22.40
2022-08-31T19:50:41.872Z,22.40
2022-08-31T19:53:12.130Z,22.50
2022-08-31T19:55:50.323Z,22.30
2022-08-31T19:58:19.871Z,22.30
2022-08-31T20:00:47.969Z,22.20
2022-08-31T20:03:15.709Z,22.20
2022-08-31T20:05:43.681Z,22.20
2022-08-31T20:08:12.273Z,22.20
2022-08-31T20:10:39.958Z,22.10
2022-08-31T20:13:08.027Z,22.00
2022-08-31T20:15:38.876Z,22.00
2022-08-31T20:18:07.535Z,22.00
2022-08-31T20:20:39.359Z,22.00
2022-08-31T20:23:06.803Z,22.00
2022-08-31T20:25:36.425Z,21.90
2022-08-31T20:28:03.467Z,21.90
2022-08-31T20:30:34.198Z,21.50
2022-08-31T20:33:02.957Z,21.50
2022-08-31T20:35:30.923Z,21.30
2022-08-31T20:38:04.323Z,21.10
2022-08-31T20:40:31.469Z,21.10
2022-08-31T20:42:58.725Z,20.80
2022-08-31T20:45:25.918Z,20.50
2022-08-31T20:48:11.490Z,20.50
2022-08-31T20:50:42.781Z,20.10
2022-08-31T20:53:17.037Z,20.10
2022-08-31T20:55:51.874Z,20.00
2022-08-31T20:58:19.298Z,19.90
2022-08-31T21:00:47.799Z,20.00
2022-08-31T21:03:16.085Z,20.00
2022-08-31T21:05:44.532Z,20.10
2022-08-31T21:08:11.760Z,20.10
2022-08-31T21:10:40.195Z,20.20
2022-08-31T21:13:08.220Z,20.20
2022-08-31T21:15:35.350Z,20.20
2022-08-31T21:18:02.481Z,19.80
2022-08-31T21:20:29.493Z,20.10
2022-08-31T21:22:57.837Z,20.00
2022-08-31T21:25:25.902Z,19.90
2022-08-31T21:27:53.051Z,20.10
2022-08-31T21:30:20.524Z,19.80
2022-08-31T21:32:48.797Z,19.70
2022-08-31T21:35:16.163Z,19.70
2022-08-31T21:37:43.715Z,19.60
2022-08-31T21:40:12.911Z,19.70
2022-08-31T21:42:40.820Z,19.80
2022-08-31T21:45:08.086Z,19.80
2022-08-31T21:47:35.008Z,19.60
2022-08-31T21:50:02.068Z,19.70
2022-08-31T21:52:29.374Z,19.70
2022-08-31T21:54:56.467Z,19.70
2022-08-31T21:57:27.282Z,19.80
2022-08-31T21:59:54.356Z,19.80
2022-08-31T22:02:21.411Z,19.60
2022-08-31T22:04:48.382Z,19.60
2022-08-31T22:07:15.497Z,19.40
2022-08-31T22:09:43.463Z,19.30
2022-08-31T22:12:10.515Z,19.40
2022-08-31T22:14:39.927Z,19.40
2022-08-31T22:17:08.371Z,19.40
2022-08-31T22:19:38.836Z,19.50
2022-08-31T22:22:08.040Z,19.60
2022-08-31T22:24:35.991Z,19.70
2022-08-31T22:27:04.957Z,19.30
2022-08-31T22:29:33.172Z,19.30
2022-08-31T22:32:02.338Z,19.30
2022-08-31T22:34:29.466Z,19.10
2022-08-31T22:36:56.620Z,19.40
2022-08-31T22:39:25.639Z,19.10
2022-08-31T22:41:53.228Z,19.10
2022-08-31T22:44:21.346Z,19.40
2022-08-31T22:46:48.677Z,19.50
2022-08-31T22:49:17.388Z,19.60
2022-08-31T22:51:48.618Z,19.20
2022-08-31T22:54:16.737Z,18.90
2022-08-31T22:56:43.713Z,19.20
2022-08-31T22:59:13.298Z,19.20
2022-08-31T23:01:42.451Z,19.50
2022-08-31T23:04:14.680Z,19.60
2022-08-31T23:06:43.751Z,19.50
2022-08-31T23:09:11.178Z,19.30
2022-08-31T23:11:39.227Z,19.30
2022-08-31T23:14:08.690Z,19.40
2022-08-31T23:16:37.123Z,19.50
2022-08-31T23:19:10.700Z,19.60
2022-08-31T23:21:44.980Z,19.50
2022-08-31T23:24:14.039Z,19.50
2022-08-31T23:26:40.947Z,19.40
2022-08-31T23:29:10.139Z,19.50
2022-08-31T23:31:37.950Z,19.60
2022-08-31T23:34:07.132Z,19.50
2022-08-31T23:36:34.123Z,19.60
2022-08-31T23:39:03.413Z,19.60
2022-08-31T23:41:38.821Z,19.40
2022-08-31T23:44:07.953Z,19.40
2022-08-31T23:46:36.118Z,19.60
2022-08-31T23:49:04.532Z,19.60
2022-08-31T23:51:33.117Z,19.60
2022-08-31T23:54:00.519Z,19.50
2022-08-31T23:56:32.875Z,19.40
2022-08-31T23:59:02.325Z,19.40
